createdAt,value
2019-04-07T00:00:58.581Z,34.03
2019-04-07T00:03:29.550Z,41.70
2019-04-07T00:06:00.269Z,42.25
2019-04-07T00:08:31.530Z,37.70
2019-04-07T00:11:02.327Z,44.75
2019-04-07T00:13:33.950Z,43.83
2019-04-07T00:16:10.081Z,40.17
2019-04-07T00:18:40.988Z,38.55
2019-04-07T00:21:14.585Z,36.30
2019-04-07T00:23:46.222Z,33.13
2019-04-07T00:26:17.033Z,30.12
2019-04-07T00:28:52.037Z,33.25
2019-04-07T00:31:22.817Z,33.20
2019-04-07T00:33:53.579Z,40.43
2019-04-07T00:36:24.346Z,37.10
2019-04-07T00:38:56.172Z,38.83
2019-04-07T00:41:27.474Z,39.80
2019-04-07T00:43:58.219Z,33.55
2019-04-07T00:46:29.091Z,34.50
2019-04-07T00:49:01.326Z,32.45
2019-04-07T00:51:34.201Z,41.53
2019-04-07T00:54:07.333Z,45.98
2019-04-07T00:56:59.317Z,56.90
2019-04-07T00:59:30.818Z,29.63
2019-04-07T01:02:04.675Z,21.37
2019-04-07T01:04:34.412Z,19.82
2019-04-07T01:07:06.910Z,18.98
2019-04-07T01:09:58.547Z,16.27
2019-04-07T01:12:23.174Z,18.25
2019-04-07T01:14:55.474Z,18.67
2019-04-07T01:17:26.894Z,15.32
2019-04-07T01:19:58.638Z,16.60
2019-04-07T01:22:29.799Z,14.68
2019-04-07T01:25:02.485Z,17.25
2019-04-07T01:27:33.661Z,14.47
2019-04-07T01:30:11.754Z,14.05
2019-04-07T01:32:42.852Z,12.95
2019-04-07T01:38:07.188Z,14.00
2019-04-07T01:40:39.957Z,13.45
2019-04-07T01:43:28.134Z,15.85
2019-04-07T01:48:58.545Z,15.18
2019-04-07T01:51:43.161Z,18.12
2019-04-07T01:54:18.893Z,14.53
2019-04-07T01:56:58.022Z,14.50
2019-04-07T01:59:39.264Z,15.00
2019-04-07T02:05:09.600Z,14.07
2019-04-07T02:07:43.612Z,13.18
2019-04-07T02:10:16.266Z,13.95
2019-04-07T02:12:49.789Z,13.35
2019-04-07T02:18:37.828Z,14.73
2019-04-07T02:21:36.116Z,12.07
2019-04-07T02:24:09.084Z,11.05
2019-04-07T02:26:42.168Z,11.50
2019-04-07T02:29:21.210Z,15.60
2019-04-07T02:32:06.119Z,11.38
2019-04-07T02:34:46.072Z,11.83
2019-04-07T02:37:20.597Z,11.05
2019-04-07T02:40:00.083Z,11.60
2019-04-07T02:42:50.748Z,13.45
2019-04-07T02:45:30.214Z,14.45
2019-04-07T02:48:09.011Z,10.75
2019-04-07T02:50:48.110Z,10.98
2019-04-07T02:53:33.187Z,11.30
2019-04-07T02:56:17.774Z,11.93
2019-04-07T02:59:06.307Z,10.88
2019-04-07T03:05:28.158Z,12.93
2019-04-07T03:08:21.275Z,15.15
2019-04-07T03:10:57.668Z,12.58
2019-04-07T03:13:32.970Z,10.20
2019-04-07T03:16:08.469Z,16.55
2019-04-07T03:21:22.574Z,11.00
2019-04-07T03:24:01.476Z,10.32
2019-04-07T03:26:46.601Z,14.20
2019-04-07T03:29:38.419Z,14.05
2019-04-07T03:32:26.281Z,10.55
2019-04-07T03:41:12.440Z,11.45
2019-04-07T03:43:50.773Z,11.28
2019-04-07T03:46:42.824Z,10.43
2019-04-07T03:49:27.806Z,10.93
2019-04-07T03:52:17.058Z,11.30
2019-04-07T03:58:16.594Z,10.98
2019-04-07T04:01:17.678Z,12.53
2019-04-07T04:04:09.574Z,12.35
2019-04-07T04:06:55.171Z,10.75
2019-04-07T04:15:15.078Z,10.13
2019-04-07T04:17:48.730Z,10.70
2019-04-07T04:20:22.589Z,12.13
2019-04-07T04:22:54.691Z,11.43
2019-04-07T04:25:26.351Z,11.35
2019-04-07T04:27:57.921Z,13.43
2019-04-07T04:30:31.909Z,11.55
2019-04-07T04:33:02.549Z,14.70
2019-04-07T04:35:34.860Z,9.25
2019-04-07T04:38:06.003Z,12.03
2019-04-07T04:40:37.546Z,11.90
2019-04-07T04:43:08.986Z,10.82
2019-04-07T04:45:40.523Z,10.72
2019-04-07T04:48:11.976Z,10.65
2019-04-07T04:50:45.793Z,11.33
2019-04-07T04:53:18.389Z,12.90
2019-04-07T04:55:49.660Z,14.23
2019-04-07T04:58:23.534Z,12.45
2019-04-07T05:00:54.748Z,11.08
2019-04-07T05:03:27.246Z,10.65
2019-04-07T05:06:01.413Z,13.60
2019-04-07T05:08:33.749Z,11.18
2019-04-07T05:11:04.906Z,12.05
2019-04-07T05:13:36.176Z,10.68
2019-04-07T05:16:08.288Z,11.93
2019-04-07T05:18:46.502Z,10.60
2019-04-07T05:21:16.348Z,11.03
2019-04-07T05:23:48.779Z,14.50
2019-04-07T05:26:21.440Z,12.23
2019-04-07T05:29:13.732Z,12.98
2019-04-07T05:32:04.568Z,10.90
2019-04-07T05:34:36.639Z,12.90
2019-04-07T05:37:07.622Z,10.98
2019-04-07T05:39:41.361Z,11.57
2019-04-07T05:42:15.748Z,11.75
2019-04-07T05:44:46.636Z,11.57
2019-04-07T05:47:19.031Z,12.00
2019-04-07T05:50:00.593Z,11.57
2019-04-07T05:52:35.373Z,13.98
2019-04-07T05:55:04.514Z,12.47
2019-04-07T05:57:36.065Z,11.48
2019-04-07T06:00:14.229Z,12.63
2019-04-07T06:03:04.239Z,14.83
2019-04-07T06:05:36.914Z,11.15
2019-04-07T06:08:22.611Z,11.80
2019-04-07T06:10:40.342Z,15.40
2019-04-07T06:13:13.163Z,10.93
2019-04-07T06:15:43.090Z,11.00
2019-04-07T06:18:13.849Z,15.40
2019-04-07T06:20:46.607Z,14.38
2019-04-07T06:23:17.765Z,12.10
2019-04-07T06:28:40.442Z,11.60
2019-04-07T06:31:12.856Z,9.48
2019-04-07T06:33:45.760Z,14.47
2019-04-07T06:36:18.757Z,16.12
2019-04-07T06:38:51.802Z,12.07
2019-04-07T06:41:21.760Z,14.70
2019-04-07T06:43:52.796Z,18.50
2019-04-07T07:13:31.935Z,12.82
2019-04-07T07:16:17.011Z,13.13
2019-04-07T07:19:06.378Z,10.38
2019-04-07T07:21:52.249Z,12.18
2019-04-07T07:24:25.359Z,11.50
2019-04-07T07:26:57.693Z,11.12
2019-04-07T07:29:52.538Z,9.18
2019-04-07T07:32:21.618Z,12.15
2019-04-07T07:35:03.154Z,9.83
2019-04-07T07:37:35.342Z,13.13
2019-04-07T07:40:09.813Z,9.30
2019-04-07T07:42:40.913Z,10.25
2019-04-07T07:45:13.694Z,13.28
2019-04-07T07:47:43.782Z,12.07
2019-04-07T07:50:14.490Z,10.90
2019-04-07T07:52:47.294Z,10.03
2019-04-07T07:55:17.451Z,10.40
2019-04-07T07:57:49.106Z,9.65
2019-04-07T08:00:20.989Z,12.37
2019-04-07T08:02:52.849Z,11.30
2019-04-07T08:05:24.805Z,11.90
2019-04-07T08:07:56.118Z,16.15
2019-04-07T08:10:27.557Z,11.60
2019-04-07T08:12:58.566Z,14.83
2019-04-07T08:15:32.246Z,15.30
2019-04-07T08:18:04.769Z,13.50
2019-04-07T08:20:33.917Z,14.13
2019-04-07T08:23:05.285Z,13.88
2019-04-07T08:25:36.837Z,13.20
2019-04-07T08:28:08.162Z,14.93
2019-04-07T08:30:42.873Z,14.73
2019-04-07T08:33:23.686Z,13.98
2019-04-07T08:35:56.179Z,12.93
2019-04-07T08:38:28.230Z,12.53
2019-04-07T08:41:00.403Z,14.40
2019-04-07T08:43:31.981Z,12.90
2019-04-07T08:48:55.384Z,11.03
2019-04-07T08:51:33.705Z,13.00
2019-04-07T08:54:06.233Z,11.73
2019-04-07T08:56:37.622Z,12.65
2019-04-07T08:59:17.079Z,14.10
2019-04-07T09:01:53.468Z,10.80
2019-04-07T09:04:23.198Z,10.67
2019-04-07T09:06:54.828Z,11.12
2019-04-07T09:09:34.101Z,11.30
2019-04-07T09:12:00.489Z,10.63
2019-04-07T09:14:32.961Z,9.68
2019-04-07T09:17:30.900Z,11.38
2019-04-07T09:19:59.497Z,12.07
2019-04-07T09:22:34.741Z,12.20
2019-04-07T09:25:09.520Z,10.35
2019-04-07T09:27:41.446Z,13.40
2019-04-07T09:30:20.716Z,13.48
2019-04-07T09:33:13.626Z,12.45
2019-04-07T09:35:59.399Z,10.82
2019-04-07T09:38:40.729Z,10.50
2019-04-07T09:41:27.490Z,11.30
2019-04-07T09:44:03.989Z,12.23
2019-04-07T09:46:50.268Z,10.95
2019-04-07T09:52:15.042Z,15.93
2019-04-07T09:55:07.547Z,9.68
2019-04-07T09:57:38.756Z,13.03
2019-04-07T10:00:23.028Z,7.78
2019-04-07T10:02:57.190Z,13.15
2019-04-07T10:05:45.914Z,11.00
2019-04-07T10:08:24.875Z,9.48
2019-04-07T10:11:03.039Z,9.28
2019-04-07T10:13:51.992Z,11.95
2019-04-07T10:16:40.622Z,9.33
2019-04-07T10:19:16.125Z,9.43
2019-04-07T10:21:48.642Z,9.63
2019-04-07T10:24:33.038Z,8.08
2019-04-07T10:27:05.846Z,7.85
2019-04-07T10:29:49.183Z,9.25
2019-04-07T10:32:23.659Z,11.57
2019-04-07T10:37:51.008Z,9.53
2019-04-07T10:40:26.436Z,10.43
2019-04-07T10:43:01.979Z,10.40
2019-04-07T10:45:43.871Z,11.05
2019-04-07T10:48:38.750Z,8.28
2019-04-07T10:51:20.207Z,11.10
2019-04-07T10:54:01.531Z,7.92
2019-04-07T10:56:38.683Z,9.48
2019-04-07T11:03:06.566Z,10.88
2019-04-07T11:05:42.589Z,8.85
2019-04-07T11:08:32.157Z,8.08
2019-04-07T11:11:24.887Z,8.33
2019-04-07T11:14:16.266Z,9.85
2019-04-07T11:16:49.921Z,8.60
2019-04-07T11:19:28.555Z,8.75
2019-04-07T11:22:04.542Z,8.38
2019-04-07T11:24:56.711Z,9.30
2019-04-07T11:27:31.107Z,9.48
2019-04-07T11:30:03.842Z,11.90
2019-04-07T11:32:45.372Z,11.73
2019-04-07T11:35:26.785Z,8.80
2019-04-07T11:38:16.821Z,14.15
2019-04-07T11:40:59.450Z,8.75
2019-04-07T11:43:38.062Z,9.10
2019-04-07T11:49:13.415Z,11.83
2019-04-07T11:51:52.378Z,10.70
2019-04-07T11:54:31.381Z,8.73
2019-04-07T11:57:04.427Z,9.43
2019-04-07T11:59:52.362Z,11.68
2019-04-07T12:02:35.293Z,9.28
2019-04-07T12:05:44.188Z,10.58
2019-04-07T12:08:36.156Z,11.20
2019-04-07T12:11:24.482Z,9.03
2019-04-07T12:14:02.882Z,9.03
2019-04-07T12:16:55.312Z,9.95
2019-04-07T12:19:28.903Z,9.03
2019-04-07T12:22:08.606Z,10.15
2019-04-07T12:24:39.268Z,9.30
2019-04-07T12:27:24.245Z,12.78
2019-04-07T12:30:21.398Z,11.80
2019-04-07T12:33:04.686Z,9.75
2019-04-07T12:35:51.601Z,10.63
2019-04-07T12:38:43.233Z,12.05
2019-04-07T12:41:19.603Z,9.98
2019-04-07T12:43:59.517Z,11.25
2019-04-07T12:46:38.674Z,12.20
2019-04-07T12:49:20.821Z,11.35
2019-04-07T12:52:00.234Z,10.72
2019-04-07T12:54:39.618Z,11.70
2019-04-07T12:57:16.963Z,11.10
2019-04-07T12:59:51.692Z,14.70
2019-04-07T13:02:47.588Z,14.55
2019-04-07T13:05:35.512Z,19.83
2019-04-07T13:08:34.925Z,19.30
2019-04-07T13:11:11.807Z,20.17
2019-04-07T13:13:53.102Z,24.75
2019-04-07T13:16:27.846Z,25.45
2019-04-07T13:19:14.313Z,21.33
2019-04-07T13:21:48.334Z,17.25
2019-04-07T13:24:35.357Z,15.35
2019-04-07T13:27:06.218Z,12.23
2019-04-07T13:29:56.454Z,13.13
2019-04-07T13:32:39.282Z,10.50
2019-04-07T13:35:09.353Z,11.03
2019-04-07T13:37:58.982Z,11.90
2019-04-07T13:40:40.761Z,12.88
2019-04-07T13:43:32.647Z,11.20
2019-04-07T13:46:30.882Z,12.18
2019-04-07T13:49:02.771Z,12.15
2019-04-07T13:51:45.860Z,9.38
2019-04-07T13:54:35.975Z,13.32
2019-04-07T13:57:32.829Z,12.73
2019-04-07T14:00:33.912Z,14.87
2019-04-07T14:03:24.114Z,13.00
2019-04-07T14:06:11.340Z,14.23
2019-04-07T14:08:57.203Z,13.62
2019-04-07T14:11:41.547Z,11.20
2019-04-07T14:14:48.286Z,9.83
2019-04-07T14:17:40.913Z,11.22
2019-04-07T14:20:13.916Z,13.05
2019-04-07T14:22:47.689Z,9.60
2019-04-07T14:25:29.867Z,10.05
2019-04-07T14:28:04.618Z,10.55
2019-04-07T14:30:58.794Z,9.88
2019-04-07T14:33:49.110Z,7.35
2019-04-07T14:36:22.728Z,9.05
2019-04-07T14:39:06.114Z,8.00
2019-04-07T14:42:02.560Z,10.38
2019-04-07T14:44:33.643Z,8.75
2019-04-07T14:47:12.824Z,8.63
2019-04-07T14:50:06.873Z,9.15
2019-04-07T14:52:50.664Z,12.18
2019-04-07T15:09:06.766Z,10.15
2019-04-07T15:11:38.974Z,9.28
2019-04-07T15:14:13.608Z,10.68
2019-04-07T15:16:47.415Z,10.35
2019-04-07T15:19:20.506Z,11.57
2019-04-07T15:21:55.068Z,10.15
2019-04-07T15:24:26.079Z,10.32
2019-04-07T15:26:57.854Z,11.60
2019-04-07T15:29:28.880Z,12.53
2019-04-07T15:32:00.203Z,8.58
2019-04-07T15:34:32.062Z,9.18
2019-04-07T15:37:03.170Z,10.72
2019-04-07T15:39:37.249Z,10.38
2019-04-07T15:42:37.745Z,8.35
2019-04-07T15:44:59.992Z,10.88
2019-04-07T15:47:30.984Z,9.80
2019-04-07T15:50:01.731Z,10.88
2019-04-07T15:52:32.206Z,13.28
2019-04-07T15:55:02.907Z,10.60
2019-04-07T15:57:35.005Z,9.73
2019-04-07T16:00:08.080Z,13.08
2019-04-07T16:02:42.126Z,11.48
2019-04-07T16:05:11.639Z,12.07
2019-04-07T16:07:43.889Z,15.05
2019-04-07T16:10:15.407Z,13.85
2019-04-07T16:12:50.746Z,12.25
2019-04-07T16:15:19.529Z,14.45
2019-04-07T16:17:50.273Z,10.15
2019-04-07T16:20:25.059Z,12.10
2019-04-07T16:22:54.300Z,13.43
2019-04-07T16:25:27.605Z,13.08
2019-04-07T16:27:57.057Z,10.53
2019-04-07T16:30:28.894Z,11.38
2019-04-07T16:33:02.639Z,13.18
2019-04-07T16:35:32.337Z,11.55
2019-04-07T16:38:30.364Z,11.05
2019-04-07T16:41:01.564Z,13.60
2019-04-07T16:43:33.877Z,13.70
2019-04-07T16:46:04.406Z,11.50
2019-04-07T16:48:39.301Z,12.75
2019-04-07T16:51:07.180Z,14.95
2019-04-07T16:53:41.819Z,11.83
2019-04-07T16:56:32.292Z,10.63
2019-04-07T16:59:08.429Z,10.58
2019-04-07T17:01:42.315Z,11.83
2019-04-07T17:04:15.830Z,13.22
2019-04-07T17:06:46.878Z,14.58
2019-04-07T17:09:23.091Z,15.03
2019-04-07T17:11:54.810Z,15.95
2019-04-07T17:14:47.011Z,12.88
2019-04-07T17:17:22.034Z,11.93
2019-04-07T17:19:57.374Z,15.13
2019-04-07T17:22:30.479Z,14.60
2019-04-07T17:25:04.382Z,15.45
2019-04-07T17:27:35.238Z,20.82
2019-04-07T17:30:18.773Z,20.23
2019-04-07T17:32:51.262Z,16.12
2019-04-07T17:35:24.167Z,16.90
2019-04-07T17:37:59.815Z,20.37
2019-04-07T17:40:36.418Z,18.37
2019-04-07T17:43:11.818Z,19.52
2019-04-07T17:46:02.369Z,23.18
2019-04-07T17:48:44.925Z,23.27
2019-04-07T17:54:26.503Z,19.30
2019-04-07T17:57:15.301Z,19.52
2019-04-07T18:00:05.836Z,16.82
2019-04-07T18:02:53.246Z,16.57
2019-04-07T18:08:19.871Z,20.37
2019-04-07T18:11:02.254Z,17.65
2019-04-07T18:13:49.883Z,15.60
2019-04-07T18:19:45.226Z,17.35
2019-04-07T18:22:26.058Z,15.00
2019-04-07T18:25:06.108Z,22.30
2019-04-07T18:27:46.188Z,20.90
2019-04-07T18:30:37.173Z,21.10
2019-04-07T18:33:09.826Z,19.80
2019-04-07T18:35:43.165Z,20.12
2019-04-07T18:38:31.682Z,17.73
2019-04-07T18:41:13.096Z,19.35
2019-04-07T18:47:06.833Z,22.77
2019-04-07T18:49:55.878Z,27.20
2019-04-07T18:52:44.650Z,26.80
2019-04-07T18:55:25.317Z,29.70
2019-04-07T18:58:14.943Z,22.58
2019-04-07T19:00:55.396Z,30.08
2019-04-07T19:03:28.432Z,30.35
2019-04-07T19:06:16.849Z,32.38
2019-04-07T19:09:04.846Z,32.93
2019-04-07T19:11:42.785Z,31.77
2019-04-07T19:14:33.561Z,33.92
2019-04-07T19:16:52.307Z,33.30
2019-04-07T19:19:37.641Z,31.73
2019-04-07T19:22:17.685Z,27.13
2019-04-07T19:24:55.821Z,24.52
2019-04-07T19:27:44.787Z,27.82
2019-04-07T19:30:29.320Z,32.95
2019-04-07T19:33:19.182Z,28.57
2019-04-07T19:36:11.818Z,25.90
2019-04-07T19:41:48.879Z,19.55
2019-04-07T19:44:35.546Z,22.85
2019-04-07T19:47:14.501Z,21.02
2019-04-07T19:49:51.257Z,23.83
2019-04-07T19:52:23.761Z,25.08
2019-04-07T19:54:57.264Z,21.93
2019-04-07T19:57:34.178Z,23.57
2019-04-07T20:00:22.228Z,25.20
2019-04-07T20:02:55.340Z,24.27
2019-04-07T20:05:43.712Z,24.07
2019-04-07T20:08:20.676Z,26.75
2019-04-07T20:11:08.342Z,23.02
2019-04-07T20:13:57.323Z,26.57
2019-04-07T20:16:38.719Z,21.87
2019-04-07T20:19:33.679Z,23.07
2019-04-07T20:22:06.844Z,24.43
2019-04-07T20:24:52.949Z,23.40
2019-04-07T20:27:37.917Z,24.50
2019-04-07T20:30:19.062Z,25.80
2019-04-07T20:33:11.922Z,24.55
2019-04-07T20:35:47.999Z,23.12
2019-04-07T20:38:25.527Z,26.23
2019-04-07T20:40:57.540Z,24.98
2019-04-07T20:43:29.891Z,26.45
2019-04-07T20:53:24.203Z,23.65
2019-04-07T20:58:54.975Z,25.68
2019-04-07T21:01:33.390Z,24.47
2019-04-07T21:04:21.812Z,24.45
2019-04-07T21:07:11.104Z,27.82
2019-04-07T21:12:51.622Z,24.05
2019-04-07T21:15:36.880Z,28.07
2019-04-07T21:18:28.896Z,23.07
2019-04-07T21:21:12.161Z,32.45
2019-04-07T21:24:00.159Z,23.32
2019-04-07T21:26:37.107Z,23.70
2019-04-07T21:29:16.083Z,26.90
2019-04-07T21:31:51.344Z,25.82
2019-04-07T21:34:26.572Z,26.15
2019-04-07T21:37:00.656Z,25.12
2019-04-07T21:39:48.293Z,25.20
2019-04-07T21:42:39.062Z,25.30
2019-04-07T21:45:32.664Z,22.75
2019-04-07T21:48:07.838Z,22.85
2019-04-07T21:51:02.331Z,28.25
2019-04-07T21:53:50.126Z,29.98
2019-04-07T21:59:42.472Z,24.00
2019-04-07T22:02:15.299Z,22.40
2019-04-07T22:04:50.667Z,25.80
2019-04-07T22:07:31.566Z,26.90
2019-04-07T22:10:01.829Z,25.52
2019-04-07T22:12:44.986Z,29.32
2019-04-07T22:15:17.170Z,33.85
2019-04-07T22:17:48.211Z,25.75
2019-04-07T22:20:23.562Z,35.23
2019-04-07T22:22:57.914Z,32.05
2019-04-07T22:25:37.865Z,34.80
2019-04-07T22:28:07.674Z,31.85
2019-04-07T22:30:41.212Z,37.83
2019-04-07T22:33:16.374Z,28.77
2019-04-07T22:35:47.353Z,26.30
2019-04-07T22:38:22.709Z,29.27
2019-04-07T22:40:50.270Z,30.00
2019-04-07T22:43:24.813Z,28.90
2019-04-07T22:46:06.893Z,24.70
2019-04-07T22:48:31.745Z,34.13
2019-04-07T22:51:09.889Z,29.70
2019-04-07T22:53:41.289Z,28.80
2019-04-07T22:56:12.066Z,27.32
2019-04-07T23:01:36.211Z,24.12
2019-04-07T23:04:26.384Z,26.45
2019-04-07T23:07:02.852Z,26.97
2019-04-07T23:09:34.406Z,30.57
2019-04-07T23:12:05.498Z,23.73
2019-04-07T23:14:36.450Z,28.02
2019-04-07T23:17:07.861Z,29.65
2019-04-07T23:19:39.911Z,24.67
2019-04-07T23:22:11.677Z,25.92
2019-04-07T23:24:43.183Z,25.70
2019-04-07T23:27:36.004Z,27.62
2019-04-07T23:30:11.016Z,27.00
2019-04-07T23:32:43.803Z,28.10
2019-04-07T23:35:22.851Z,28.95
2019-04-07T23:38:01.510Z,26.87
2019-04-07T23:40:32.623Z,24.82
2019-04-07T23:43:04.718Z,27.32
2019-04-07T23:45:35.754Z,28.98
2019-04-07T23:48:07.074Z,29.27
2019-04-07T23:50:41.161Z,28.30
2019-04-07T23:53:47.967Z,26.10
2019-04-07T23:56:24.018Z,30.25
2019-04-07T23:58:55.117Z,32.33
